Edna, Kansas
Current Conditions -  °F | °C
As of 2:52 AM on Sunday 21 Dec 2014 (Local Time) from KCFV Reporting Station
Overcast Overcast  
Wind Chill: 35°   Ceiling: 2100
Heat Index: 42°   Visibility: 10mi
Dew Point: 38°   Wind: 13mph
Humidity: 85%   Direction: 190°S
Pressure: 30.11"   Gusts: NA
Location:  37.06°N, 95.36°W
Report Text: KCFV 210852Z AUTO 19011KT 10SM SCT016 OVC021 06/03 A3011 RMK AO2 SLP200 T00560033 56014
Loading
Personal Weather Stations






























Interactive Weather Map New forecast layout! Learn more

10-Day Weather Forecast

Advertisements
Track Severe Weather on mobile